Huvudsida
METAR-TAF:

METAR-TAF

Flygplatser :

Kairos internationella flygplats

Kairo, Egypten

latitud: 30-08N, longitud: 031-24E, höjd: 64 m

Aktuellt väderrapport

Denna rapport gjordes för 29 minuter sedan, klockan 13:00 UTC
Vind 9 kt från nord
Temperatur 29°C
Fuktighet 37%
Tryck 1015 hPa
Sikt 10 km eller mer
Få moln på en höjd av 2500 ft

METAR: HECA 151300Z 36009KT 9999 FEW025 29/13 Q1015 NOSIG

Tid: 15:29 (13:29 UTC)

Väderprognos

Denna rapport gjordes för 2 timmar och 29 minuter sedan, klockan 11:00 UTC
Prognos gäller från 15 kl. 12 UTC till 16 kl. 18 UTC
Vind 8 kt från nord
Sikt 10 km eller mer
Spridda moln på en höjd av 2500 ft

TAF: HECA 151100Z 1512/1618 36008KT 9999 SCT025

Aktuella väderrapporter och prognoser från 4000 flygplatser (METAR- och TAF-rapporter).

De tillgängliga stationerna syns som gula och röda prickar på kartan.

För musen över prickarna för att se namnen på stationerna.

Klicka sedan för att få väderrapporter och prognoser.

För att ändra kartan: Klicka på de gröna knapparna med ett svart kors på för att zooma in; den gröna knappen med ett streck på för att zooma ut; eller på de gröna pilarna för angränsande kartor.


METAR-TAF: